Time;durP1;ratioP1;P1;durP2;ratioP2;P2;SDS_P1;SDS_P2;PMS_P1;PMS_P2;Temp;Humidity;BMP_temperature;BMP_pressure;BME280_temperature;BME280_humidity;BME280_pressure;Samples;Min_cycle;Max_cycle;Signal;HPM_P1;HPM_P2
2023/10/04 00:04:55;;;;;;;;;;;;;;;13.57;100.00;96849.81;10524172;28;2407;-75
2023/10/04 00:09:59;;;;;;;;;;;;;;;13.46;100.00;96843.56;10528053;28;1862;-74
2023/10/04 00:15:01;;;;;;;;;;;;;;;13.25;100.00;96848.09;10521378;28;1948;-76
2023/10/04 00:20:08;;;;;;;;;;;;;;;13.03;100.00;96854.69;10517111;28;2179;-75
2023/10/04 00:25:11;;;;;;;;;;;;;;;12.94;100.00;96852.50;10524870;28;1984;-75
2023/10/04 00:30:17;;;;;;;;;;;;;;;12.78;100.00;96855.38;10524157;28;1904;-75
2023/10/04 00:35:21;;;;;;;;;;;;;;;12.70;100.00;96852.09;10517711;28;2297;-75
2023/10/04 00:40:23;;;;;;;;;;;;;;;12.57;100.00;96851.75;10520100;28;1973;-74
2023/10/04 00:45:26;;;;;;;;;;;;;;;12.46;100.00;96840.06;10518897;28;2003;-75
2023/10/04 00:50:31;;;;;;;;;;;;;;;12.47;100.00;96835.47;10519449;28;2706;-75
2023/10/04 00:55:37;;;;;;;;;;;;;;;12.36;100.00;96834.63;10521056;28;2004;-75
2023/10/04 01:00:40;;;;;;;;;;;;;;;12.34;100.00;96821.41;10523556;28;1975;-75
2023/10/04 01:05:47;;;;;;;;;;;;;;;12.22;100.00;96815.38;10524789;28;1983;-76
2023/10/04 01:10:50;;;;;;;;;;;;;;;12.09;100.00;96813.13;10520410;28;2065;-74
2023/10/04 01:15:55;;;;;;;;;;;;;;;11.96;100.00;96810.84;10520971;28;1913;-75
2023/10/04 01:20:59;;;;;;;;;;;;;;;11.85;100.00;96813.47;10512738;28;2081;-76
2023/10/04 01:26:01;;;;;;;;;;;;;;;11.73;100.00;96809.28;10519004;28;1917;-76
2023/10/04 01:31:04;;;;;;;;;;;;;;;11.68;100.00;96801.94;10521378;28;2068;-74
2023/10/04 01:36:06;;;;;;;;;;;;;;;11.59;100.00;96815.06;10517543;28;2680;-72
2023/10/04 01:41:09;;;;;;;;;;;;;;;11.63;100.00;96812.66;10521748;28;4599;-74
2023/10/04 01:46:12;;;;;;;;;;;;;;;11.67;100.00;96805.72;10521025;28;1889;-76
2023/10/04 01:51:14;;;;;;;;;;;;;;;11.60;100.00;96807.81;10516943;28;1975;-76
2023/10/04 01:56:17;;;;;;;;;;;;;;;11.62;100.00;96811.06;10512598;28;1939;-73
2023/10/04 02:01:20;;;;;;;;;;;;;;;11.72;100.00;96813.03;10520555;28;1984;-75
2023/10/04 02:06:23;;;;;;;;;;;;;;;11.82;100.00;96805.88;10518418;28;2045;-75
2023/10/04 02:11:25;;;;;;;;;;;;;;;11.95;100.00;96798.44;10515914;28;2284;-75
2023/10/04 02:16:28;;;;;;;;;;;;;;;12.08;100.00;96789.91;10519176;28;1964;-75
2023/10/04 02:21:31;;;;;;;;;;;;;;;12.07;100.00;96794.50;10519388;28;2704;-75
2023/10/04 02:26:35;;;;;;;;;;;;;;;12.04;100.00;96786.13;10523826;28;1872;-77
2023/10/04 02:31:38;;;;;;;;;;;;;;;12.00;100.00;96785.00;10554980;28;2518;-76
2023/10/04 02:36:43;;;;;;;;;;;;;;;11.89;100.00;96786.81;10519770;28;2340;-76
2023/10/04 02:41:47;;;;;;;;;;;;;;;11.70;100.00;96791.72;10520382;28;4761;-77
2023/10/04 02:46:50;;;;;;;;;;;;;;;11.54;100.00;96790.78;10512555;28;1964;-76
2023/10/04 02:51:54;;;;;;;;;;;;;;;11.51;100.00;96799.34;10519999;28;2082;-77
2023/10/04 02:56:56;;;;;;;;;;;;;;;11.66;100.00;96798.72;10523691;28;1940;-77
2023/10/04 03:01:58;;;;;;;;;;;;;;;11.80;100.00;96793.72;10522155;28;1984;-76
2023/10/04 03:07:01;;;;;;;;;;;;;;;11.70;100.00;96789.03;10527896;28;2684;-76
2023/10/04 03:12:04;;;;;;;;;;;;;;;11.56;100.00;96793.22;10526436;28;1895;-74
2023/10/04 03:17:13;;;;;;;;;;;;;;;11.43;100.00;96794.44;10525366;28;1956;-75
2023/10/04 03:22:23;;;;;;;;;;;;;;;11.23;100.00;96795.03;10528235;28;1999;-74
2023/10/04 03:27:26;;;;;;;;;;;;;;;11.05;100.00;96798.88;10524979;28;1916;-76
2023/10/04 03:32:29;;;;;;;;;;;;;;;10.96;100.00;96799.56;10526781;28;2244;-76
2023/10/04 03:37:38;;;;;;;;;;;;;;;10.80;100.00;96798.56;10527110;28;1956;-75
2023/10/04 03:42:41;;;;;;;;;;;;;;;10.65;100.00;96801.88;10523479;28;1980;-75
2023/10/04 03:47:44;;;;;;;;;;;;;;;10.59;100.00;96802.06;10531108;28;2232;-76
2023/10/04 03:52:47;;;;;;;;;;;;;;;10.52;100.00;96800.34;10523914;28;2599;-75
2023/10/04 03:57:51;;;;;;;;;;;;;;;10.49;100.00;96800.84;10525565;28;1889;-75
2023/10/04 04:02:54;;;;;;;;;;;;;;;10.40;100.00;96809.59;10522867;28;1997;-76
2023/10/04 04:07:57;;;;;;;;;;;;;;;10.36;100.00;96811.13;10523140;28;2008;-76
2023/10/04 04:13:01;;;;;;;;;;;;;;;10.28;100.00;96807.81;10526621;28;1956;-76
2023/10/04 04:18:06;;;;;;;;;;;;;;;10.31;100.00;96814.56;10522061;28;2035;-77
2023/10/04 04:23:10;;;;;;;;;;;;;;;10.26;100.00;96817.19;10522942;28;2096;-76
2023/10/04 04:28:17;;;;;;;;;;;;;;;10.21;100.00;96815.19;10519370;28;2008;-77
2023/10/04 04:33:25;;;;;;;;;;;;;;;10.14;100.00;96819.91;10522591;28;2034;-77
2023/10/04 04:38:29;;;;;;;;;;;;;;;10.08;100.00;96831.66;10517837;28;2533;-76
2023/10/04 04:43:36;;;;;;;;;;;;;;;9.99;100.00;96817.00;10521818;28;4686;-75
2023/10/04 04:48:39;;;;;;;;;;;;;;;9.96;100.00;96820.97;10522431;28;1961;-78
2023/10/04 04:53:42;;;;;;;;;;;;;;;9.98;100.00;96818.84;10525841;28;1904;-78
2023/10/04 04:58:47;;;;;;;;;;;;;;;9.96;100.00;96825.53;10518842;28;1952;-76
2023/10/04 05:03:51;;;;;;;;;;;;;;;9.95;100.00;96830.09;10525285;28;1874;-74
2023/10/04 05:08:54;;;;;;;;;;;;;;;9.99;100.00;96833.94;10522267;28;2004;-75
2023/10/04 05:13:57;;;;;;;;;;;;;;;10.05;100.00;96832.13;10525642;28;1899;-76
2023/10/04 05:18:59;;;;;;;;;;;;;;;10.06;100.00;96831.09;10520639;28;1961;-78
2023/10/04 05:24:03;;;;;;;;;;;;;;;10.08;100.00;96842.38;10515099;28;2614;-76
2023/10/04 05:29:07;;;;;;;;;;;;;;;10.12;100.00;96842.72;10524880;28;1952;-77
2023/10/04 05:34:10;;;;;;;;;;;;;;;10.15;100.00;96843.03;10525325;28;1885;-75
2023/10/04 05:39:14;;;;;;;;;;;;;;;10.26;100.00;96847.56;10527102;28;1913;-76
2023/10/04 05:44:17;;;;;;;;;;;;;;;10.39;100.00;96851.78;10516728;28;4653;-75
2023/10/04 05:49:21;;;;;;;;;;;;;;;10.46;100.00;96860.47;10519363;28;1963;-76
2023/10/04 05:54:23;;;;;;;;;;;;;;;10.52;100.00;96866.75;10525601;28;1960;-77
2023/10/04 05:59:26;;;;;;;;;;;;;;;10.62;100.00;96864.19;10525191;28;1918;-77
2023/10/04 06:04:28;;;;;;;;;;;;;;;10.79;100.00;96875.75;10520346;28;2007;-76
2023/10/04 06:09:32;;;;;;;;;;;;;;;10.99;100.00;96875.19;10521622;28;2584;-75
2023/10/04 06:14:36;;;;;;;;;;;;;;;11.18;100.00;96873.03;10525406;28;2011;-76
2023/10/04 06:19:40;;;;;;;;;;;;;;;11.36;100.00;96872.72;10523084;28;1985;-77
2023/10/04 06:24:43;;;;;;;;;;;;;;;11.47;100.00;96872.84;10518535;28;2017;-77
2023/10/04 06:29:46;;;;;;;;;;;;;;;11.62;100.00;96884.56;10527315;28;1826;-76
2023/10/04 06:34:49;;;;;;;;;;;;;;;11.76;100.00;96878.78;10530312;28;1972;-76
2023/10/04 06:39:54;;;;;;;;;;;;;;;11.90;100.00;96883.56;10531293;28;1968;-76
2023/10/04 06:44:56;;;;;;;;;;;;;;;12.09;100.00;96883.19;10530410;28;4551;-76
2023/10/04 06:50:00;;;;;;;;;;;;;;;12.26;100.00;96888.44;10528308;28;2035;-74
2023/10/04 06:55:03;;;;;;;;;;;;;;;12.37;100.00;96890.97;10527796;28;2481;-75
2023/10/04 07:00:12;;;;;;;;;;;;;;;12.48;100.00;96885.69;10527431;28;1973;-75
2023/10/04 07:05:15;;;;;;;;;;;;;;;12.60;100.00;96889.00;10527901;28;1945;-72
2023/10/04 07:10:20;;;;;;;;;;;;;;;12.75;100.00;96888.28;10528957;28;2015;-76
2023/10/04 07:15:24;;;;;;;;;;;;;;;12.84;100.00;96879.44;10527734;28;2257;-74
2023/10/04 07:20:27;;;;;;;;;;;;;;;12.98;100.00;96883.31;10528068;28;1983;-77
2023/10/04 07:25:29;;;;;;;;;;;;;;;13.29;100.00;96885.34;10532865;28;1848;-76
2023/10/04 07:30:31;;;;;;;;;;;;;;;13.46;100.00;96888.69;10525030;28;1909;-75
2023/10/04 07:35:34;;;;;;;;;;;;;;;13.74;100.00;96892.81;10528825;28;1752;-75
2023/10/04 07:40:37;;;;;;;;;;;;;;;13.91;100.00;96892.59;10531497;28;4881;-76
2023/10/04 07:45:39;;;;;;;;;;;;;;;14.26;100.00;96889.13;10530167;28;1890;-75
2023/10/04 07:50:42;;;;;;;;;;;;;;;14.63;100.00;96885.34;10527806;28;1830;-74
2023/10/04 07:55:45;;;;;;;;;;;;;;;14.80;100.00;96888.59;10524829;28;1916;-76
2023/10/04 08:00:48;;;;;;;;;;;;;;;14.84;100.00;96881.56;10528124;28;1983;-77
2023/10/04 08:05:50;;;;;;;;;;;;;;;15.00;100.00;96874.19;10525643;28;1876;-76
2023/10/04 08:10:55;;;;;;;;;;;;;;;15.09;100.00;96867.97;10522368;28;1874;-76
2023/10/04 08:15:57;;;;;;;;;;;;;;;15.31;100.00;96866.78;10522087;28;1839;-74
2023/10/04 08:21:00;;;;;;;;;;;;;;;15.35;100.00;96870.56;10520404;28;2014;-78
2023/10/04 08:26:02;;;;;;;;;;;;;;;15.40;100.00;96862.44;10529061;28;2478;-76
2023/10/04 08:31:05;;;;;;;;;;;;;;;15.34;100.00;96858.94;10521547;28;1823;-76
2023/10/04 08:36:10;;;;;;;;;;;;;;;15.58;100.00;96859.06;10524994;28;1870;-76
2023/10/04 08:41:12;;;;;;;;;;;;;;;15.77;100.00;96856.56;10524466;28;4730;-76
2023/10/04 08:46:15;;;;;;;;;;;;;;;15.76;100.00;96857.66;10527317;28;1953;-78
2023/10/04 08:51:17;;;;;;;;;;;;;;;15.62;100.00;96852.03;10553460;27;1839;-75
2023/10/04 08:56:20;;;;;;;;;;;;;;;15.63;100.00;96853.66;10521040;28;2077;-74
2023/10/04 09:01:22;;;;;;;;;;;;;;;15.58;100.00;96850.94;10517703;28;1984;-76
2023/10/04 09:06:25;;;;;;;;;;;;;;;16.12;100.00;96850.09;10525123;28;1695;-75
2023/10/04 09:11:28;;;;;;;;;;;;;;;16.38;100.00;96841.75;10517100;28;2574;-77
2023/10/04 09:16:31;;;;;;;;;;;;;;;15.78;100.00;96851.97;10520410;28;1851;-76
2023/10/04 09:21:35;;;;;;;;;;;;;;;15.67;100.00;96853.91;10521980;28;2197;-75
2023/10/04 09:26:38;;;;;;;;;;;;;;;15.72;100.00;96850.38;10517205;28;1897;-76
2023/10/04 09:31:40;;;;;;;;;;;;;;;15.57;100.00;96843.91;10521458;28;2173;-74
2023/10/04 09:36:43;;;;;;;;;;;;;;;15.53;100.00;96848.28;10521418;28;1929;-74
2023/10/04 09:41:47;;;;;;;;;;;;;;;15.61;100.00;96839.56;10518852;28;4686;-74
2023/10/04 09:46:54;;;;;;;;;;;;;;;15.38;100.00;96841.00;10518888;28;1823;-74
2023/10/04 09:51:56;;;;;;;;;;;;;;;15.63;100.00;96831.97;10519235;28;1910;-76
2023/10/04 09:57:00;;;;;;;;;;;;;;;15.31;100.00;96829.66;10522118;28;2819;-77
2023/10/04 10:02:02;;;;;;;;;;;;;;;15.47;100.00;96816.88;10524176;28;1976;-74
2023/10/04 10:07:09;;;;;;;;;;;;;;;15.77;100.00;96815.91;10522677;28;1807;-74
2023/10/04 10:12:12;;;;;;;;;;;;;;;16.06;100.00;96802.41;10519375;28;1897;-75
2023/10/04 10:17:17;;;;;;;;;;;;;;;15.96;100.00;96802.47;10517845;28;1886;-76
2023/10/04 10:22:19;;;;;;;;;;;;;;;16.26;100.00;96814.19;10515866;28;1909;-76
2023/10/04 10:27:22;;;;;;;;;;;;;;;16.74;100.00;96804.28;10521828;28;1902;-75
2023/10/04 10:32:24;;;;;;;;;;;;;;;16.56;100.00;96794.91;10525610;28;1809;-76
2023/10/04 10:37:27;;;;;;;;;;;;;;;16.64;100.00;96790.75;10522676;28;1883;-75
2023/10/04 10:42:30;;;;;;;;;;;;;;;16.53;100.00;96789.25;10516942;28;2725;-75
2023/10/04 10:47:32;;;;;;;;;;;;;;;16.27;100.00;96778.63;10518075;28;1902;-75
2023/10/04 10:52:54;;;;;;;;;;;;;;;16.49;100.00;96761.88;10517486;28;1886;-76
2023/10/04 10:57:57;;;;;;;;;;;;;;;17.11;100.00;96768.25;10524847;28;1897;-74
2023/10/04 11:02:59;;;;;;;;;;;;;;;17.25;100.00;96757.50;10521610;28;1989;-73
2023/10/04 11:08:06;;;;;;;;;;;;;;;17.00;100.00;96761.34;10522822;28;1765;-75
2023/10/04 11:13:09;;;;;;;;;;;;;;;16.98;100.00;96768.94;10525753;28;1697;-75
2023/10/04 11:18:12;;;;;;;;;;;;;;;16.92;100.00;96764.69;10526965;28;1633;-75
2023/10/04 11:23:15;;;;;;;;;;;;;;;16.74;100.00;96753.50;10531193;28;2691;-75
2023/10/04 11:28:18;;;;;;;;;;;;;;;17.11;100.00;96740.28;10528611;28;1563;-76
2023/10/04 11:33:20;;;;;;;;;;;;;;;17.29;100.00;96737.56;10531373;28;1764;-78
2023/10/04 11:38:24;;;;;;;;;;;;;;;17.10;100.00;96738.66;10531047;28;2028;-78
2023/10/04 11:43:26;;;;;;;;;;;;;;;17.06;100.00;96726.78;10526160;28;4746;-77
2023/10/04 11:48:29;;;;;;;;;;;;;;;16.90;100.00;96718.81;10531659;28;1863;-76
2023/10/04 11:53:36;;;;;;;;;;;;;;;16.83;100.00;96722.97;10529151;28;1786;-74
2023/10/04 11:58:38;;;;;;;;;;;;;;;17.10;100.00;96712.28;10527047;28;1737;-75
2023/10/04 12:03:42;;;;;;;;;;;;;;;16.80;100.00;96715.44;10524705;28;1980;-76
2023/10/04 12:08:44;;;;;;;;;;;;;;;16.86;100.00;96701.50;10519152;28;2623;-76
2023/10/04 12:13:47;;;;;;;;;;;;;;;16.75;100.00;96695.38;10523027;28;1875;-75
2023/10/04 12:18:49;;;;;;;;;;;;;;;16.61;100.00;96710.72;10526834;28;1969;-75
2023/10/04 12:23:52;;;;;;;;;;;;;;;16.70;100.00;96708.19;10520130;28;2036;-74
2023/10/04 12:28:54;;;;;;;;;;;;;;;16.91;100.00;96692.44;10522019;28;1874;-75
2023/10/04 12:33:57;;;;;;;;;;;;;;;17.25;100.00;96693.09;10520054;28;1897;-75
2023/10/04 12:39:00;;;;;;;;;;;;;;;17.21;100.00;96697.47;10522499;28;1839;-75
2023/10/04 12:44:03;;;;;;;;;;;;;;;17.37;100.00;96695.38;10522214;28;4722;-75
2023/10/04 12:49:07;;;;;;;;;;;;;;;17.60;100.00;96693.66;10522117;28;1961;-75
2023/10/04 12:54:09;;;;;;;;;;;;;;;18.16;100.00;96681.84;10529246;28;2192;-75
2023/10/04 12:59:12;;;;;;;;;;;;;;;17.54;100.00;96697.53;10518818;28;1890;-75
2023/10/04 13:04:15;;;;;;;;;;;;;;;17.07;100.00;96693.88;10517104;28;1971;-74
2023/10/04 13:09:20;;;;;;;;;;;;;;;17.03;100.00;96690.13;10523243;28;2796;-75
2023/10/04 13:14:23;;;;;;;;;;;;;;;16.90;100.00;96699.78;10521146;28;1879;-75
2023/10/04 13:19:27;;;;;;;;;;;;;;;16.59;100.00;96691.19;10524479;28;1819;-75
2023/10/04 13:24:31;;;;;;;;;;;;;;;16.57;100.00;96696.09;10517638;28;2113;-75
2023/10/04 13:29:34;;;;;;;;;;;;;;;16.44;100.00;96691.38;10516840;28;2010;-74
2023/10/04 13:34:36;;;;;;;;;;;;;;;16.46;100.00;96681.03;10518958;28;1965;-75
2023/10/04 13:39:39;;;;;;;;;;;;;;;16.46;100.00;96681.03;10518552;28;2130;-74
2023/10/04 13:44:42;;;;;;;;;;;;;;;16.56;100.00;96663.81;10517062;28;4766;-75
2023/10/04 13:49:44;;;;;;;;;;;;;;;16.38;100.00;96665.38;10524122;28;1870;-73
2023/10/04 13:54:51;;;;;;;;;;;;;;;16.51;100.00;96672.03;10520842;28;2865;-74
2023/10/04 13:59:59;;;;;;;;;;;;;;;16.33;100.00;96660.00;10520659;28;1917;-75
2023/10/04 14:05:01;;;;;;;;;;;;;;;16.35;100.00;96657.81;10517192;28;1991;-75
2023/10/04 14:10:04;;;;;;;;;;;;;;;16.60;100.00;96659.41;10519706;28;1995;-76
2023/10/04 14:15:10;;;;;;;;;;;;;;;16.60;100.00;96652.09;10518403;28;1871;-77
2023/10/04 14:20:13;;;;;;;;;;;;;;;16.57;100.00;96657.28;10516724;28;1894;-76
2023/10/04 14:25:16;;;;;;;;;;;;;;;16.49;100.00;96653.31;10521653;28;2033;-77
2023/10/04 14:30:20;;;;;;;;;;;;;;;16.59;100.00;96646.94;10522456;28;1866;-77
2023/10/04 14:35:23;;;;;;;;;;;;;;;16.55;100.00;96656.78;10518651;28;1957;-77
2023/10/04 14:40:26;;;;;;;;;;;;;;;16.49;100.00;96653.31;10518572;28;4694;-80
2023/10/04 14:45:28;;;;;;;;;;;;;;;16.50;100.00;96649.50;10513067;28;1982;-75
2023/10/04 14:50:33;;;;;;;;;;;;;;;16.36;100.00;96654.03;10517768;28;1965;-74
2023/10/04 14:55:35;;;;;;;;;;;;;;;16.42;100.00;96648.25;10524682;28;1878;-74
2023/10/04 15:00:38;;;;;;;;;;;;;;;16.41;100.00;96651.22;10522871;28;2061;-76
2023/10/04 15:05:42;;;;;;;;;;;;;;;16.42;100.00;96658.28;10525726;28;1994;-76
2023/10/04 15:10:45;;;;;;;;;;;;;;;16.33;100.00;96654.59;10524038;28;1914;-75
2023/10/04 15:15:47;;;;;;;;;;;;;;;16.15;100.00;96654.22;10524249;28;1971;-76
2023/10/04 15:20:55;;;;;;;;;;;;;;;16.17;100.00;96657.47;10525149;28;1887;-73
2023/10/04 15:25:57;;;;;;;;;;;;;;;16.04;100.00;96652.72;10525915;28;1905;-74
2023/10/04 15:31:01;;;;;;;;;;;;;;;16.01;100.00;96658.72;10528304;28;1874;-77
2023/10/04 15:36:04;;;;;;;;;;;;;;;15.87;100.00;96652.34;10530424;28;1886;-76
2023/10/04 15:41:07;;;;;;;;;;;;;;;15.83;100.00;96654.00;10527246;28;4839;-74
2023/10/04 15:46:10;;;;;;;;;;;;;;;15.80;100.00;96638.31;10530568;28;1934;-74
2023/10/04 15:51:17;;;;;;;;;;;;;;;15.80;100.00;96641.03;10528387;28;1618;-76
2023/10/04 15:56:20;;;;;;;;;;;;;;;15.78;100.00;96621.56;10534008;28;1776;-75
2023/10/04 16:01:23;;;;;;;;;;;;;;;15.56;100.00;96621.97;10529202;28;1967;-76
2023/10/04 16:06:27;;;;;;;;;;;;;;;15.46;100.00;96608.50;10530181;28;1485;-76
2023/10/04 16:11:29;;;;;;;;;;;;;;;15.36;100.00;96604.81;10530829;28;1843;-76
2023/10/04 16:16:32;;;;;;;;;;;;;;;15.30;100.00;96605.13;10527747;28;1451;-76
2023/10/04 16:21:35;;;;;;;;;;;;;;;15.18;100.00;96605.47;10528564;28;1910;-77
2023/10/04 16:26:40;;;;;;;;;;;;;;;15.03;100.00;96605.59;10524918;28;1995;-76
2023/10/04 16:31:43;;;;;;;;;;;;;;;14.92;100.00;96610.28;10522312;28;1866;-75
2023/10/04 16:36:45;;;;;;;;;;;;;;;14.77;100.00;96613.88;10525126;28;1820;-76
2023/10/04 16:41:48;;;;;;;;;;;;;;;14.56;100.00;96617.78;10520608;28;4836;-75
2023/10/04 16:46:52;;;;;;;;;;;;;;;14.49;100.00;96630.78;10525922;28;1847;-76
2023/10/04 16:51:55;;;;;;;;;;;;;;;14.40;100.00;96640.56;10521541;28;1926;-76
2023/10/04 16:56:58;;;;;;;;;;;;;;;14.37;100.00;96644.59;10524166;28;2759;-75
2023/10/04 17:02:00;;;;;;;;;;;;;;;14.14;100.00;96646.03;10523805;28;1985;-77
2023/10/04 17:07:02;;;;;;;;;;;;;;;14.03;100.00;96641.75;10522326;28;1915;-76
2023/10/04 17:12:05;;;;;;;;;;;;;;;13.97;100.00;96665.28;10519261;28;1910;-76
2023/10/04 17:17:08;;;;;;;;;;;;;;;13.84;100.00;96660.44;10522265;28;1855;-75
2023/10/04 17:22:10;;;;;;;;;;;;;;;13.70;100.00;96667.47;10522937;28;1914;-76
2023/10/04 17:27:15;;;;;;;;;;;;;;;13.63;100.00;96670.44;10527717;28;1938;-78
2023/10/04 17:32:19;;;;;;;;;;;;;;;13.60;100.00;96659.38;10516009;28;1850;-77
2023/10/04 17:37:22;;;;;;;;;;;;;;;13.41;100.00;96661.78;10523280;28;2118;-77
2023/10/04 17:42:25;;;;;;;;;;;;;;;13.47;100.00;96656.13;10520440;28;4622;-75
2023/10/04 17:47:28;;;;;;;;;;;;;;;13.47;100.00;96644.50;10517036;28;1967;-74
2023/10/04 17:52:30;;;;;;;;;;;;;;;13.39;100.00;96651.25;10519167;28;1957;-74
2023/10/04 17:57:33;;;;;;;;;;;;;;;13.30;100.00;96649.38;10518961;28;1900;-74
2023/10/04 18:02:36;;;;;;;;;;;;;;;13.17;100.00;96650.69;10523120;28;1918;-74
2023/10/04 18:07:38;;;;;;;;;;;;;;;13.05;100.00;96645.56;10554849;27;1900;-75
2023/10/04 18:12:42;;;;;;;;;;;;;;;12.90;100.00;96645.50;10521456;28;1886;-74
2023/10/04 18:17:46;;;;;;;;;;;;;;;12.94;100.00;96652.81;10518499;28;1938;-75
2023/10/04 18:22:49;;;;;;;;;;;;;;;12.78;100.00;96648.44;10521161;28;1914;-77
2023/10/04 18:27:51;;;;;;;;;;;;;;;12.61;100.00;96647.88;10526063;28;2602;-77
2023/10/04 18:32:53;;;;;;;;;;;;;;;12.42;100.00;96661.81;10527385;28;1906;-76
2023/10/04 18:37:56;;;;;;;;;;;;;;;12.38;100.00;96660.72;10527544;28;1894;-75
2023/10/04 18:42:59;;;;;;;;;;;;;;;12.40;100.00;96663.94;10527582;28;4761;-75
2023/10/04 18:48:01;;;;;;;;;;;;;;;12.33;100.00;96662.56;10530662;28;1787;-76
2023/10/04 18:53:04;;;;;;;;;;;;;;;12.29;100.00;96680.38;10539744;28;2142;-74
2023/10/04 18:58:07;;;;;;;;;;;;;;;12.22;100.00;96686.00;10528253;28;1928;-75
2023/10/04 19:03:09;;;;;;;;;;;;;;;12.15;100.00;96677.31;10529766;28;2056;-76
2023/10/04 19:08:12;;;;;;;;;;;;;;;11.94;100.00;96676.38;10524522;28;1814;-74
2023/10/04 19:13:14;;;;;;;;;;;;;;;11.77;100.00;96687.31;10528804;28;2536;-75
2023/10/04 19:18:18;;;;;;;;;;;;;;;11.63;100.00;96691.47;10524790;28;1830;-75
2023/10/04 19:23:22;;;;;;;;;;;;;;;11.54;100.00;96709.19;10520841;28;1983;-76
2023/10/04 19:28:26;;;;;;;;;;;;;;;11.44;100.00;96701.03;10527220;28;1950;-77
2023/10/04 19:33:29;;;;;;;;;;;;;;;11.40;100.00;96691.84;10523221;28;2230;-75
2023/10/04 19:38:31;;;;;;;;;;;;;;;11.30;100.00;96693.38;10525844;28;2053;-75
2023/10/04 19:43:35;;;;;;;;;;;;;;;11.27;100.00;96698.47;10530283;28;4583;-75
2023/10/04 19:48:37;;;;;;;;;;;;;;;11.24;100.00;96690.88;10525990;28;1977;-75
2023/10/04 19:53:43;;;;;;;;;;;;;;;11.20;100.00;96690.59;10521809;28;1929;-74
2023/10/04 19:58:45;;;;;;;;;;;;;;;11.15;100.00;96695.94;10523867;28;2698;-75
2023/10/04 20:03:48;;;;;;;;;;;;;;;11.11;100.00;96692.09;10521160;28;1976;-76
2023/10/04 20:08:51;;;;;;;;;;;;;;;11.16;100.00;96677.91;10518287;28;1980;-76
2023/10/04 20:13:54;;;;;;;;;;;;;;;11.13;100.00;96671.13;10524066;28;1991;-77
2023/10/04 20:18:56;;;;;;;;;;;;;;;11.16;100.00;96667.94;10524000;28;1980;-77
2023/10/04 20:23:59;;;;;;;;;;;;;;;11.09;100.00;96668.16;10522604;28;1948;-74
2023/10/04 20:29:01;;;;;;;;;;;;;;;11.05;100.00;96668.91;10529425;28;1988;-75
2023/10/04 20:34:04;;;;;;;;;;;;;;;10.95;100.00;96663.44;10520292;28;1933;-75
2023/10/04 20:39:09;;;;;;;;;;;;;;;10.92;100.00;96672.00;10522781;28;1953;-74
2023/10/04 20:44:12;;;;;;;;;;;;;;;10.85;100.00;96668.72;10517624;28;4594;-76
2023/10/04 20:49:14;;;;;;;;;;;;;;;10.74;100.00;96652.47;10522429;28;1909;-77
2023/10/04 20:54:17;;;;;;;;;;;;;;;10.71;100.00;96663.72;10523679;28;1956;-74
2023/10/04 20:59:19;;;;;;;;;;;;;;;10.59;100.00;96655.00;10518499;28;1952;-75
2023/10/04 21:04:22;;;;;;;;;;;;;;;10.59;100.00;96649.63;10518581;28;2312;-76
2023/10/04 21:09:25;;;;;;;;;;;;;;;10.57;100.00;96651.75;10521924;28;2034;-75
2023/10/04 21:14:27;;;;;;;;;;;;;;;10.48;100.00;96664.00;10523403;28;1960;-77
2023/10/04 21:19:31;;;;;;;;;;;;;;;10.43;100.00;96658.56;10519921;28;2000;-77
2023/10/04 21:24:34;;;;;;;;;;;;;;;10.36;100.00;96645.31;10525198;28;1964;-75
2023/10/04 21:29:37;;;;;;;;;;;;;;;10.37;100.00;96640.75;10515756;28;2620;-76
2023/10/04 21:34:39;;;;;;;;;;;;;;;10.36;100.00;96645.31;10518737;28;1965;-75
2023/10/04 21:39:47;;;;;;;;;;;;;;;10.28;100.00;96638.50;10523532;28;1987;-75
2023/10/04 21:44:49;;;;;;;;;;;;;;;10.21;100.00;96643.22;10520010;28;4492;-76
2023/10/04 21:49:52;;;;;;;;;;;;;;;10.16;100.00;96637.78;10519015;28;1928;-76
2023/10/04 21:54:54;;;;;;;;;;;;;;;10.12;100.00;96644.72;10524419;28;1903;-74
2023/10/04 21:59:56;;;;;;;;;;;;;;;10.04;100.00;96642.47;10520271;28;1917;-75
2023/10/04 22:05:00;;;;;;;;;;;;;;;10.02;100.00;96639.22;10524608;28;1910;-76
2023/10/04 22:10:05;;;;;;;;;;;;;;;9.93;100.00;96646.91;10529339;28;1941;-75
2023/10/04 22:15:12;;;;;;;;;;;;;;;9.83;100.00;96643.25;10524087;28;2640;-75
2023/10/04 22:20:16;;;;;;;;;;;;;;;9.77;100.00;96630.81;10521636;28;1971;-75
2023/10/04 22:25:21;;;;;;;;;;;;;;;9.70;100.00;96631.81;10519315;28;1972;-75
2023/10/04 22:30:24;;;;;;;;;;;;;;;9.65;100.00;96626.34;10525019;28;1970;-76
2023/10/04 22:35:29;;;;;;;;;;;;;;;9.59;100.00;96619.28;10519955;28;1940;-76
2023/10/04 22:40:34;;;;;;;;;;;;;;;9.62;100.00;96618.00;10520226;28;4576;-75
2023/10/04 22:45:37;;;;;;;;;;;;;;;9.60;100.00;96620.91;10519601;28;1988;-75
2023/10/04 22:50:40;;;;;;;;;;;;;;;9.52;100.00;96618.66;10515694;28;1944;-74
2023/10/04 22:55:43;;;;;;;;;;;;;;;9.44;100.00;96619.06;10517693;28;2169;-75
2023/10/04 23:00:46;;;;;;;;;;;;;;;9.34;100.00;96627.75;10519685;28;2646;-73
2023/10/04 23:05:53;;;;;;;;;;;;;;;9.30;100.00;96625.84;10524034;28;1952;-74
2023/10/04 23:10:56;;;;;;;;;;;;;;;9.24;100.00;96619.56;10524535;28;2268;-75
2023/10/04 23:15:59;;;;;;;;;;;;;;;9.26;100.00;96619.31;10527502;28;2011;-75
2023/10/04 23:21:06;;;;;;;;;;;;;;;9.26;100.00;96620.13;10526057;28;2051;-77
2023/10/04 23:26:09;;;;;;;;;;;;;;;9.25;100.00;96628.44;10529410;28;1987;-74
2023/10/04 23:31:11;;;;;;;;;;;;;;;9.17;100.00;96613.56;10528019;28;2026;-75
2023/10/04 23:36:19;;;;;;;;;;;;;;;9.12;100.00;96616.16;10525541;28;1957;-76
2023/10/04 23:41:32;;;;;;;;;;;;;;;9.09;100.00;96622.00;10523515;28;4710;-74
2023/10/04 23:46:36;;;;;;;;;;;;;;;9.08;100.00;96615.81;10521314;28;2458;-75
2023/10/04 23:51:41;;;;;;;;;;;;;;;9.05;100.00;96602.91;10528309;28;1835;-75
2023/10/04 23:57:00;;;;;;;;;;;;;;;9.06;100.00;96609.06;10527276;28;1953;-76
